createdAt,value
2022-10-20T00:01:31.215Z,8.60
2022-10-20T00:04:19.821Z,8.70
2022-10-20T00:07:08.576Z,8.60
2022-10-20T00:09:58.516Z,8.70
2022-10-20T00:12:47.513Z,8.60
2022-10-20T00:15:36.225Z,8.60
2022-10-20T00:18:26.546Z,8.50
2022-10-20T00:21:17.539Z,8.60
2022-10-20T00:24:06.256Z,8.50
2022-10-20T00:26:56.242Z,8.40
2022-10-20T00:29:45.003Z,8.50
2022-10-20T00:32:34.182Z,8.50
2022-10-20T00:35:23.334Z,8.50
2022-10-20T00:38:12.058Z,8.40
2022-10-20T00:41:03.105Z,8.50
2022-10-20T00:43:54.905Z,8.50
2022-10-20T00:46:44.354Z,8.40
2022-10-20T00:49:33.091Z,8.40
2022-10-20T00:52:23.764Z,8.40
2022-10-20T00:55:16.546Z,8.30
2022-10-20T00:58:06.351Z,8.40
2022-10-20T01:01:00.685Z,8.40
2022-10-20T01:03:52.480Z,8.40
2022-10-20T01:06:41.349Z,8.40
2022-10-20T01:09:31.144Z,8.40
2022-10-20T01:12:31.640Z,8.40
2022-10-20T01:15:29.213Z,8.40
2022-10-20T01:18:27.828Z,8.40
2022-10-20T01:21:49.017Z,8.40
2022-10-20T01:25:02.137Z,8.30
2022-10-20T01:27:56.212Z,8.30
2022-10-20T01:30:50.396Z,8.30
2022-10-20T01:33:45.635Z,8.30
2022-10-20T01:36:39.774Z,8.30
2022-10-20T01:39:35.450Z,8.30
2022-10-20T01:42:26.856Z,8.20
2022-10-20T01:45:19.476Z,8.20
2022-10-20T01:48:11.088Z,8.10
2022-10-20T01:51:01.332Z,8.10
2022-10-20T01:53:50.009Z,8.20
2022-10-20T01:56:43.902Z,8.20
2022-10-20T01:59:55.661Z,8.20
2022-10-20T02:03:05.567Z,8.10
2022-10-20T02:06:10.149Z,8.00
2022-10-20T02:09:01.061Z,8.00
2022-10-20T02:11:54.125Z,8.10
2022-10-20T02:14:44.750Z,8.10
2022-10-20T02:17:35.632Z,8.20
2022-10-20T02:20:26.056Z,8.10
2022-10-20T02:23:14.653Z,8.20
2022-10-20T02:26:05.248Z,8.10
2022-10-20T02:28:58.479Z,8.00
2022-10-20T02:31:48.258Z,8.10
2022-10-20T02:34:40.909Z,8.00
2022-10-20T02:37:32.927Z,8.10
2022-10-20T02:40:23.156Z,8.00
2022-10-20T02:43:12.063Z,8.00
2022-10-20T02:46:00.721Z,8.10
2022-10-20T02:48:49.412Z,8.10
2022-10-20T02:51:38.106Z,8.10
2022-10-20T02:54:28.774Z,8.10
2022-10-20T02:57:17.492Z,8.00
2022-10-20T03:00:07.465Z,7.90
2022-10-20T03:02:56.120Z,7.90
2022-10-20T03:05:45.284Z,8.00
2022-10-20T03:08:33.921Z,8.00
2022-10-20T03:11:24.060Z,8.00
2022-10-20T03:14:13.494Z,7.90
2022-10-20T03:17:02.149Z,7.90
2022-10-20T03:19:50.878Z,7.90
2022-10-20T03:22:39.664Z,7.90
2022-10-20T03:25:28.422Z,7.70
2022-10-20T03:28:19.217Z,7.70
2022-10-20T03:31:08.033Z,7.80
2022-10-20T03:33:56.699Z,7.70
2022-10-20T03:36:45.284Z,7.70
2022-10-20T03:39:34.294Z,7.60
2022-10-20T03:42:22.972Z,7.70
2022-10-20T03:45:15.043Z,7.70
2022-10-20T03:48:07.193Z,7.70
2022-10-20T03:50:55.782Z,7.60
2022-10-20T03:53:44.777Z,7.50
2022-10-20T03:56:37.269Z,7.60
2022-10-20T03:59:29.523Z,7.50
2022-10-20T04:02:30.954Z,7.50
2022-10-20T04:05:21.638Z,7.40
2022-10-20T04:08:10.213Z,7.40
2022-10-20T04:11:00.151Z,7.40
2022-10-20T04:13:48.793Z,7.30
2022-10-20T04:16:37.402Z,7.20
2022-10-20T04:19:27.743Z,7.30
2022-10-20T04:22:16.394Z,7.40
2022-10-20T04:25:05.457Z,7.40
2022-10-20T04:27:54.107Z,7.40
2022-10-20T04:30:43.834Z,7.30
2022-10-20T04:33:32.885Z,7.20
2022-10-20T04:36:22.992Z,7.20
2022-10-20T04:39:11.749Z,7.10
2022-10-20T04:42:01.516Z,7.00
2022-10-20T04:44:50.138Z,7.20
2022-10-20T04:47:39.099Z,7.10
2022-10-20T04:50:28.142Z,7.20
2022-10-20T04:53:29.620Z,7.10
2022-10-20T04:56:20.785Z,7.10
2022-10-20T04:59:13.453Z,7.10
2022-10-20T05:02:02.648Z,7.10
2022-10-20T05:04:51.384Z,7.20
2022-10-20T05:07:40.237Z,6.90
2022-10-20T05:10:33.205Z,7.00
2022-10-20T05:13:25.287Z,7.10
2022-10-20T05:16:14.512Z,7.00
2022-10-20T05:19:03.386Z,7.10
2022-10-20T05:21:52.079Z,7.00
2022-10-20T05:24:40.811Z,7.00
2022-10-20T05:27:30.980Z,7.10
2022-10-20T05:30:19.876Z,7.10
2022-10-20T05:33:08.713Z,7.10
2022-10-20T05:35:57.404Z,7.10
2022-10-20T05:38:46.020Z,7.00
2022-10-20T05:41:38.728Z,7.00
2022-10-20T05:44:29.291Z,7.00
2022-10-20T05:47:18.044Z,7.00
2022-10-20T05:50:07.796Z,6.90
2022-10-20T05:52:56.537Z,6.80
2022-10-20T05:55:45.162Z,6.80
2022-10-20T05:58:33.886Z,6.90
2022-10-20T06:01:26.319Z,6.80
2022-10-20T06:04:16.796Z,7.00
2022-10-20T06:07:06.991Z,7.00
2022-10-20T06:09:55.704Z,7.10
2022-10-20T06:12:44.348Z,7.10
2022-10-20T06:15:34.085Z,7.20
2022-10-20T06:18:24.139Z,7.20
2022-10-20T06:21:14.521Z,7.10
2022-10-20T06:24:04.927Z,7.10
2022-10-20T06:26:53.561Z,7.20
2022-10-20T06:29:42.363Z,7.20
2022-10-20T06:32:31.370Z,7.10
2022-10-20T06:35:21.671Z,7.30
2022-10-20T06:38:10.344Z,7.40
2022-10-20T06:41:02.677Z,7.50
2022-10-20T06:43:55.107Z,7.40
2022-10-20T06:46:43.995Z,7.40
2022-10-20T06:49:32.929Z,7.40
2022-10-20T06:52:23.145Z,7.50
2022-10-20T06:55:11.787Z,7.60
2022-10-20T06:58:00.531Z,7.70
2022-10-20T07:00:49.126Z,7.60
2022-10-20T07:03:38.351Z,7.60
2022-10-20T07:06:29.435Z,7.60
2022-10-20T07:09:21.341Z,7.60
2022-10-20T07:12:09.990Z,7.70
2022-10-20T07:14:58.658Z,7.80
2022-10-20T07:17:49.057Z,7.90
2022-10-20T07:20:37.785Z,7.90
2022-10-20T07:23:27.003Z,7.90
2022-10-20T07:26:19.381Z,8.00
2022-10-20T07:29:08.871Z,8.00
2022-10-20T07:31:59.960Z,8.10
2022-10-20T07:34:50.143Z,8.00
2022-10-20T07:37:39.102Z,7.90
2022-10-20T07:40:28.343Z,8.00
2022-10-20T07:43:18.497Z,8.10
2022-10-20T07:46:07.711Z,8.20
2022-10-20T07:49:02.772Z,8.30
2022-10-20T07:52:00.249Z,8.40
2022-10-20T07:54:48.939Z,8.40
2022-10-20T07:57:37.669Z,8.50
2022-10-20T08:00:27.970Z,8.50
2022-10-20T08:03:16.683Z,8.70
2022-10-20T08:06:06.152Z,8.60
2022-10-20T08:08:55.189Z,8.70
2022-10-20T08:11:43.990Z,8.80
2022-10-20T08:14:35.211Z,8.80
2022-10-20T08:17:26.570Z,8.90
2022-10-20T08:20:17.235Z,9.00
2022-10-20T08:23:08.545Z,9.10
2022-10-20T08:25:57.626Z,9.00
2022-10-20T08:28:46.284Z,9.20
2022-10-20T08:31:35.156Z,9.40
2022-10-20T08:34:25.578Z,9.60
2022-10-20T08:37:14.335Z,9.90
2022-10-20T08:40:03.544Z,10.20
2022-10-20T08:42:52.701Z,10.40
2022-10-20T08:45:41.308Z,10.60
2022-10-20T08:48:35.247Z,10.60
2022-10-20T08:51:27.137Z,10.60
2022-10-20T08:54:17.555Z,10.70
2022-10-20T08:57:16.760Z,10.70
2022-10-20T09:00:15.821Z,10.80
2022-10-20T09:03:14.697Z,10.90
2022-10-20T09:06:10.042Z,11.00
2022-10-20T09:09:01.517Z,11.00
2022-10-20T09:11:50.914Z,11.10
2022-10-20T09:14:39.577Z,11.10
2022-10-20T09:17:28.253Z,11.20
2022-10-20T09:20:23.343Z,11.20
2022-10-20T09:23:35.472Z,11.20
2022-10-20T09:26:54.243Z,11.10
2022-10-20T09:29:45.533Z,10.90
2022-10-20T09:32:51.649Z,10.90
2022-10-20T09:35:41.805Z,10.90
2022-10-20T09:38:32.944Z,10.80
2022-10-20T09:41:23.536Z,10.70
2022-10-20T09:44:23.621Z,10.70
2022-10-20T09:47:14.865Z,10.60
2022-10-20T09:50:06.058Z,10.50
2022-10-20T09:52:55.811Z,10.60
2022-10-20T09:55:49.215Z,10.80
2022-10-20T09:58:42.198Z,11.00
2022-10-20T10:01:32.437Z,11.20
2022-10-20T10:04:33.715Z,11.30
2022-10-20T10:07:32.473Z,11.40
2022-10-20T10:10:27.340Z,11.50
2022-10-20T10:13:27.636Z,11.50
2022-10-20T10:16:19.142Z,11.40
2022-10-20T10:22:05.947Z,11.60
2022-10-20T10:24:57.153Z,11.60
2022-10-20T10:28:00.553Z,11.70
2022-10-20T10:30:50.176Z,11.80
2022-10-20T10:33:38.985Z,11.80
2022-10-20T10:36:34.227Z,11.80
2022-10-20T10:39:22.899Z,11.70
2022-10-20T10:42:35.750Z,11.80
2022-10-20T10:45:42.785Z,11.70
2022-10-20T10:49:05.032Z,11.90
2022-10-20T10:52:06.321Z,11.90
2022-10-20T10:55:04.012Z,11.80
2022-10-20T10:58:03.649Z,11.80
2022-10-20T11:01:01.912Z,11.90
2022-10-20T11:04:14.478Z,11.80
2022-10-20T11:07:10.254Z,12.00
2022-10-20T11:10:07.054Z,12.00
2022-10-20T11:13:29.665Z,12.10
2022-10-20T11:16:32.785Z,12.20
2022-10-20T11:19:45.325Z,12.20
2022-10-20T11:22:44.995Z,12.30
2022-10-20T11:25:39.236Z,12.40
2022-10-20T11:28:32.891Z,12.30
2022-10-20T11:31:27.962Z,12.30
2022-10-20T11:34:22.381Z,12.10
2022-10-20T11:37:19.128Z,11.80
2022-10-20T11:40:21.214Z,11.80
2022-10-20T11:43:18.542Z,11.70
2022-10-20T11:46:11.534Z,11.50
2022-10-20T11:49:01.876Z,11.30
2022-10-20T11:52:22.951Z,11.40
2022-10-20T11:55:44.039Z,11.30
2022-10-20T11:58:53.469Z,11.30
2022-10-20T12:01:59.628Z,11.40
2022-10-20T12:05:17.718Z,11.40
2022-10-20T12:08:37.443Z,11.50
2022-10-20T12:11:33.007Z,11.50
2022-10-20T12:14:28.976Z,11.40
2022-10-20T12:17:35.903Z,11.60
2022-10-20T12:20:55.287Z,11.70
2022-10-20T12:24:04.991Z,11.60
2022-10-20T12:27:26.086Z,11.40
2022-10-20T12:30:45.535Z,11.60
2022-10-20T12:33:40.759Z,11.70
2022-10-20T12:36:40.559Z,11.60
2022-10-20T12:39:31.374Z,11.60
2022-10-20T12:42:23.357Z,11.80
2022-10-20T12:45:37.637Z,11.70
2022-10-20T12:48:28.142Z,11.60
2022-10-20T12:51:26.523Z,11.70
2022-10-20T12:54:23.919Z,11.80
2022-10-20T12:57:29.512Z,11.70
2022-10-20T13:01:05.922Z,11.90
2022-10-20T13:03:55.950Z,11.90
2022-10-20T13:06:44.866Z,11.80
2022-10-20T13:09:53.458Z,11.90
2022-10-20T13:12:42.088Z,11.90
2022-10-20T13:15:33.756Z,11.80
2022-10-20T13:18:28.751Z,11.90
2022-10-20T13:21:33.879Z,12.00
2022-10-20T13:24:28.117Z,12.00
2022-10-20T13:27:17.587Z,12.00
2022-10-20T13:30:09.523Z,11.90
2022-10-20T13:33:33.055Z,12.00
2022-10-20T13:36:21.269Z,12.00
2022-10-20T13:39:17.674Z,11.90
2022-10-20T13:42:18.367Z,11.90
2022-10-20T13:45:17.865Z,12.00
2022-10-20T13:48:19.641Z,12.00
2022-10-20T13:51:15.985Z,12.00
2022-10-20T13:54:08.269Z,12.00
2022-10-20T13:56:59.422Z,12.00
2022-10-20T14:00:00.821Z,11.90
2022-10-20T14:03:01.145Z,12.00
2022-10-20T14:05:49.821Z,12.00
2022-10-20T14:08:44.986Z,12.00
2022-10-20T14:11:34.044Z,12.00
2022-10-20T14:14:26.881Z,12.00
2022-10-20T14:17:21.413Z,12.00
2022-10-20T14:20:19.390Z,11.90
2022-10-20T14:23:11.539Z,11.90
2022-10-20T14:26:00.887Z,11.90
2022-10-20T14:28:52.463Z,11.90
2022-10-20T14:31:43.082Z,11.80
2022-10-20T14:34:36.069Z,11.80
2022-10-20T14:37:31.715Z,11.90
2022-10-20T14:40:23.779Z,11.80
2022-10-20T14:43:18.034Z,11.80
2022-10-20T14:46:09.951Z,11.80
2022-10-20T14:49:01.117Z,11.80
2022-10-20T14:51:57.659Z,11.80
2022-10-20T14:54:46.768Z,11.80
2022-10-20T14:57:46.081Z,11.80
2022-10-20T15:00:37.461Z,11.80
2022-10-20T15:03:26.285Z,11.70
2022-10-20T15:06:19.769Z,11.80
2022-10-20T15:09:20.048Z,11.80
2022-10-20T15:12:16.095Z,11.80
2022-10-20T15:15:08.025Z,11.80
2022-10-20T15:18:14.778Z,11.70
2022-10-20T15:21:03.427Z,11.70
2022-10-20T15:23:53.822Z,11.60
2022-10-20T15:26:42.663Z,11.60
2022-10-20T15:29:31.867Z,11.50
2022-10-20T15:32:20.555Z,11.50
2022-10-20T15:35:13.383Z,11.60
2022-10-20T15:38:01.949Z,11.60
2022-10-20T15:40:52.127Z,11.60
2022-10-20T15:43:40.901Z,11.60
2022-10-20T15:46:29.651Z,11.60
2022-10-20T15:49:18.593Z,11.60
2022-10-20T15:52:07.629Z,11.50
2022-10-20T15:54:56.249Z,11.50
2022-10-20T15:57:46.413Z,11.60
2022-10-20T16:00:35.504Z,11.50
2022-10-20T16:03:24.282Z,11.40
2022-10-20T16:06:14.560Z,11.40
2022-10-20T16:09:05.057Z,11.50
2022-10-20T16:11:53.887Z,11.50
2022-10-20T16:14:44.005Z,11.50
2022-10-20T16:17:33.182Z,11.50
2022-10-20T16:20:21.948Z,11.50
2022-10-20T16:23:10.545Z,11.50
2022-10-20T16:25:59.250Z,11.60
2022-10-20T16:28:48.059Z,11.60
2022-10-20T16:31:38.092Z,11.60
2022-10-20T16:34:28.564Z,11.60
2022-10-20T16:37:17.248Z,11.60
2022-10-20T16:40:06.818Z,11.60
2022-10-20T16:42:55.464Z,11.60
2022-10-20T16:45:44.227Z,11.60
2022-10-20T16:48:36.950Z,11.60
2022-10-20T16:51:26.786Z,11.60
2022-10-20T16:54:15.671Z,11.70
2022-10-20T16:57:04.793Z,11.50
2022-10-20T16:59:53.533Z,11.60
2022-10-20T17:02:44.145Z,11.40
2022-10-20T17:05:34.249Z,11.30
2022-10-20T17:08:22.963Z,11.40
2022-10-20T17:11:13.594Z,11.50
2022-10-20T17:14:02.288Z,11.40
2022-10-20T17:16:51.007Z,11.40
2022-10-20T17:19:41.032Z,11.40
2022-10-20T17:22:31.037Z,11.40
2022-10-20T17:25:19.691Z,11.50
2022-10-20T17:28:09.055Z,11.40
2022-10-20T17:30:57.962Z,11.40
2022-10-20T17:33:46.896Z,11.30
2022-10-20T17:36:35.600Z,11.20
2022-10-20T17:39:25.699Z,11.10
2022-10-20T17:42:14.316Z,11.10
2022-10-20T17:45:02.955Z,11.10
2022-10-20T17:47:53.362Z,11.20
2022-10-20T17:50:41.945Z,11.10
2022-10-20T17:53:32.993Z,11.10
2022-10-20T17:56:24.580Z,11.10
2022-10-20T17:59:15.142Z,11.00
2022-10-20T18:02:03.881Z,11.00
2022-10-20T18:04:52.853Z,10.90
2022-10-20T18:07:41.599Z,11.00
2022-10-20T18:10:30.358Z,10.90
2022-10-20T18:13:20.557Z,10.80
2022-10-20T18:16:10.855Z,10.80
2022-10-20T18:19:00.851Z,10.80
2022-10-20T18:21:49.542Z,10.70
2022-10-20T18:24:38.405Z,10.80
2022-10-20T18:27:27.072Z,10.80
2022-10-20T18:30:17.160Z,10.70
2022-10-20T18:33:05.994Z,10.70
2022-10-20T18:35:54.736Z,10.70
2022-10-20T18:38:45.024Z,10.70
2022-10-20T18:41:37.599Z,10.60
2022-10-20T18:47:22.530Z,10.60
2022-10-20T18:50:11.999Z,10.60
2022-10-20T18:53:00.669Z,10.60
2022-10-20T18:55:59.590Z,10.50
2022-10-20T18:58:50.808Z,10.50
2022-10-20T19:01:41.508Z,10.50
2022-10-20T19:04:31.702Z,10.30
2022-10-20T19:07:20.515Z,10.40
2022-10-20T19:10:09.809Z,10.40
2022-10-20T19:12:58.466Z,10.40
2022-10-20T19:15:47.295Z,10.30
2022-10-20T19:18:36.218Z,10.30
2022-10-20T19:21:28.273Z,10.30
2022-10-20T19:24:18.603Z,10.30
2022-10-20T19:27:25.566Z,10.30
2022-10-20T19:30:15.178Z,10.20
2022-10-20T19:33:03.852Z,10.20
2022-10-20T19:35:52.807Z,10.10
2022-10-20T19:38:43.101Z,10.10
2022-10-20T19:41:31.763Z,10.00
2022-10-20T19:44:20.698Z,10.00
2022-10-20T19:47:10.204Z,10.10
2022-10-20T19:49:58.924Z,10.00
2022-10-20T19:52:47.621Z,10.00
2022-10-20T19:55:37.744Z,9.80
2022-10-20T19:58:26.576Z,9.60
2022-10-20T20:01:16.525Z,9.60
2022-10-20T20:04:06.821Z,9.70
2022-10-20T20:07:01.031Z,9.70
2022-10-20T20:09:51.821Z,9.70
2022-10-20T20:12:42.413Z,9.50
2022-10-20T20:15:31.812Z,9.40
2022-10-20T20:18:20.955Z,9.30
2022-10-20T20:21:09.731Z,9.40
2022-10-20T20:24:00.975Z,9.20
2022-10-20T20:26:50.199Z,9.30
2022-10-20T20:29:40.626Z,9.10
2022-10-20T20:32:32.164Z,9.00
2022-10-20T20:35:20.884Z,9.00
2022-10-20T20:38:09.573Z,9.00
2022-10-20T20:40:59.592Z,8.90
2022-10-20T20:43:48.281Z,8.90
2022-10-20T20:46:38.598Z,8.90
2022-10-20T20:49:27.525Z,9.00
2022-10-20T20:52:16.230Z,9.00
2022-10-20T20:55:05.367Z,8.90
2022-10-20T20:57:54.149Z,8.70
2022-10-20T21:00:42.848Z,8.60
2022-10-20T21:03:33.545Z,8.60
2022-10-20T21:06:25.784Z,8.60
2022-10-20T21:09:22.411Z,8.50
2022-10-20T21:14:59.595Z,8.50
2022-10-20T21:17:48.364Z,8.50
2022-10-20T21:20:38.391Z,8.50
2022-10-20T21:23:27.176Z,8.50
2022-10-20T21:26:18.390Z,8.40
2022-10-20T21:29:07.305Z,8.40
2022-10-20T21:31:56.246Z,8.20
2022-10-20T21:34:44.967Z,8.30
2022-10-20T21:37:35.058Z,8.30
2022-10-20T21:40:23.696Z,8.30
2022-10-20T21:43:14.219Z,8.20
2022-10-20T21:46:12.411Z,8.00
2022-10-20T21:49:03.138Z,8.00
2022-10-20T21:51:53.611Z,8.00
2022-10-20T21:54:43.780Z,8.10
2022-10-20T21:57:32.677Z,8.10
2022-10-20T22:00:23.313Z,8.00
2022-10-20T22:03:12.695Z,8.00
2022-10-20T22:06:03.654Z,7.90
2022-10-20T22:08:54.627Z,7.90
2022-10-20T22:11:46.557Z,7.80
2022-10-20T22:14:35.233Z,7.80
2022-10-20T22:17:23.895Z,7.70
2022-10-20T22:20:12.881Z,7.80
2022-10-20T22:23:02.846Z,7.70
2022-10-20T22:25:54.579Z,7.70
2022-10-20T22:28:44.683Z,7.70
2022-10-20T22:31:33.898Z,7.60
2022-10-20T22:34:22.776Z,7.50
2022-10-20T22:37:11.431Z,7.40
2022-10-20T22:40:00.015Z,7.30
2022-10-20T22:42:48.653Z,7.20
2022-10-20T22:45:38.630Z,7.10
2022-10-20T22:48:28.091Z,7.10
2022-10-20T22:51:17.685Z,7.10
2022-10-20T22:54:08.109Z,7.10
2022-10-20T22:56:56.687Z,7.20
2022-10-20T22:59:45.353Z,7.00
2022-10-20T23:02:35.754Z,6.90
2022-10-20T23:05:24.702Z,6.90
2022-10-20T23:08:13.399Z,7.00
2022-10-20T23:11:02.117Z,7.20
2022-10-20T23:13:51.858Z,7.20
2022-10-20T23:16:40.483Z,7.20
2022-10-20T23:19:30.606Z,7.20
2022-10-20T23:22:19.233Z,7.10
2022-10-20T23:25:08.719Z,7.10
2022-10-20T23:27:57.537Z,7.10
2022-10-20T23:30:46.351Z,7.10
2022-10-20T23:33:35.217Z,6.80
2022-10-20T23:36:25.573Z,6.80
2022-10-20T23:39:14.192Z,7.10
2022-10-20T23:42:06.361Z,6.90
2022-10-20T23:44:56.164Z,6.90
2022-10-20T23:47:44.870Z,6.90
2022-10-20T23:50:33.654Z,6.70
2022-10-20T23:53:23.796Z,6.60
2022-10-20T23:56:12.390Z,6.60
2022-10-20T23:59:00.990Z,6.60
